createdAt,value
2022-11-14T00:01:05.895Z,10.20
2022-11-14T00:03:35.065Z,9.95
2022-11-14T00:06:08.194Z,11.10
2022-11-14T00:08:35.845Z,8.60
2022-11-14T00:11:04.718Z,10.52
2022-11-14T00:13:31.390Z,12.57
2022-11-14T00:16:00.356Z,11.20
2022-11-14T00:18:27.587Z,12.00
2022-11-14T00:20:54.453Z,10.80
2022-11-14T00:23:21.869Z,11.65
2022-11-14T00:25:50.943Z,12.18
2022-11-14T00:28:17.716Z,12.75
2022-11-14T00:30:48.490Z,10.15
2022-11-14T00:33:20.116Z,10.57
2022-11-14T00:35:54.851Z,12.32
2022-11-14T00:38:21.858Z,10.20
2022-11-14T00:40:48.772Z,12.80
2022-11-14T00:43:17.697Z,11.63
2022-11-14T00:45:45.705Z,13.20
2022-11-14T00:48:12.447Z,10.15
2022-11-14T00:50:39.500Z,13.63
2022-11-14T00:53:06.182Z,11.60
2022-11-14T00:55:32.855Z,11.68
2022-11-14T00:57:59.502Z,11.63
2022-11-14T01:00:26.296Z,10.70
2022-11-14T01:02:56.913Z,12.18
2022-11-14T01:05:24.716Z,11.13
2022-11-14T01:07:51.519Z,11.05
2022-11-14T01:10:18.509Z,12.90
2022-11-14T01:12:45.197Z,13.98
2022-11-14T01:15:11.920Z,13.43
2022-11-14T01:17:38.581Z,13.10
2022-11-14T01:20:06.270Z,11.05
2022-11-14T01:22:32.952Z,10.40
2022-11-14T01:25:04.243Z,11.80
2022-11-14T01:27:34.072Z,11.93
2022-11-14T01:30:00.722Z,10.70
2022-11-14T01:32:27.638Z,10.98
2022-11-14T01:34:54.412Z,14.68
2022-11-14T01:37:21.420Z,11.07
2022-11-14T01:39:48.077Z,11.23
2022-11-14T01:42:15.692Z,13.40
2022-11-14T01:44:54.460Z,11.20
2022-11-14T01:47:28.446Z,12.27
2022-11-14T01:49:59.411Z,13.07
2022-11-14T01:52:31.634Z,11.38
2022-11-14T01:55:01.082Z,11.90
2022-11-14T01:57:35.719Z,12.10
2022-11-14T02:00:08.208Z,13.73
2022-11-14T02:02:35.729Z,14.52
2022-11-14T02:05:15.300Z,12.98
2022-11-14T02:07:42.141Z,12.10
2022-11-14T02:10:20.891Z,13.95
2022-11-14T02:12:49.566Z,12.70
2022-11-14T02:15:16.433Z,12.35
2022-11-14T02:17:44.330Z,11.32
2022-11-14T02:20:11.394Z,11.32
2022-11-14T02:22:41.936Z,12.75
2022-11-14T02:25:12.705Z,13.27
2022-11-14T02:27:42.216Z,13.45
2022-11-14T02:30:16.648Z,10.85
2022-11-14T02:35:32.551Z,12.70
2022-11-14T02:38:01.689Z,15.95
2022-11-14T02:40:28.367Z,13.15
2022-11-14T02:42:57.463Z,11.35
2022-11-14T02:45:24.835Z,12.35
2022-11-14T02:47:53.892Z,14.45
2022-11-14T02:50:23.067Z,13.85
2022-11-14T02:52:49.907Z,12.43
2022-11-14T02:55:19.150Z,13.50
2022-11-14T02:57:45.834Z,11.43
2022-11-14T03:00:15.128Z,13.00
2022-11-14T03:02:44.325Z,13.18
2022-11-14T03:05:10.988Z,12.13
2022-11-14T03:07:37.958Z,16.17
2022-11-14T03:10:05.357Z,12.02
2022-11-14T03:12:34.450Z,11.13
2022-11-14T03:15:01.170Z,13.88
2022-11-14T03:17:32.147Z,12.82
2022-11-14T03:20:04.127Z,12.10
2022-11-14T03:22:30.840Z,13.52
2022-11-14T03:24:57.516Z,13.75
2022-11-14T03:27:24.210Z,14.82
2022-11-14T03:29:50.852Z,19.35
2022-11-14T03:32:17.595Z,19.02
2022-11-14T03:34:44.293Z,18.13
2022-11-14T03:37:13.578Z,22.73
2022-11-14T03:39:40.278Z,18.03
2022-11-14T03:42:09.614Z,22.70
2022-11-14T03:44:36.348Z,20.57
2022-11-14T03:47:03.239Z,19.67
2022-11-14T03:49:29.886Z,32.97
2022-11-14T03:51:58.927Z,18.80
2022-11-14T03:54:25.702Z,20.48
2022-11-14T03:56:52.373Z,23.15
2022-11-14T03:59:19.033Z,17.35
2022-11-14T04:01:48.899Z,17.98
2022-11-14T04:04:18.310Z,20.60
2022-11-14T04:06:49.761Z,18.08
2022-11-14T04:09:19.110Z,18.70
2022-11-14T04:11:47.994Z,18.47
2022-11-14T04:14:14.669Z,16.60
2022-11-14T04:16:41.425Z,16.25
2022-11-14T04:19:08.132Z,20.92
2022-11-14T04:21:34.775Z,17.70
2022-11-14T04:24:10.909Z,17.63
2022-11-14T04:26:37.926Z,17.63
2022-11-14T04:29:07.178Z,18.33
2022-11-14T04:31:35.980Z,17.50
2022-11-14T04:34:02.723Z,16.08
2022-11-14T04:36:31.809Z,15.73
2022-11-14T04:38:58.502Z,15.60
2022-11-14T04:41:25.187Z,16.00
2022-11-14T04:43:51.816Z,13.32
2022-11-14T04:46:18.479Z,14.13
2022-11-14T04:48:47.292Z,14.70
2022-11-14T04:51:16.137Z,14.27
2022-11-14T04:53:42.944Z,15.85
2022-11-14T04:56:14.064Z,14.90
2022-11-14T04:58:40.727Z,13.88
2022-11-14T05:01:11.125Z,13.98
2022-11-14T05:03:38.158Z,13.65
2022-11-14T05:06:05.277Z,15.05
2022-11-14T05:08:34.466Z,13.88
2022-11-14T05:11:01.166Z,13.48
2022-11-14T05:13:27.882Z,13.85
2022-11-14T05:15:58.032Z,13.98
2022-11-14T05:20:51.423Z,12.95
2022-11-14T05:23:23.241Z,13.63
2022-11-14T05:26:06.792Z,16.58
2022-11-14T05:28:33.720Z,13.63
2022-11-14T05:31:04.957Z,12.65
2022-11-14T05:33:32.209Z,13.63
2022-11-14T05:36:06.817Z,15.07
2022-11-14T05:38:33.963Z,13.82
2022-11-14T05:41:05.197Z,14.63
2022-11-14T05:43:34.120Z,14.27
2022-11-14T05:46:05.034Z,13.95
2022-11-14T05:48:32.816Z,14.95
2022-11-14T05:51:04.235Z,14.57
2022-11-14T05:53:33.224Z,15.52
2022-11-14T05:56:07.385Z,13.57
2022-11-14T05:58:35.162Z,15.23
2022-11-14T06:01:15.927Z,17.60
2022-11-14T06:03:46.750Z,16.73
2022-11-14T06:06:17.011Z,17.05
2022-11-14T06:08:43.889Z,16.42
2022-11-14T06:11:20.601Z,15.38
2022-11-14T06:13:47.550Z,14.68
2022-11-14T06:16:16.678Z,15.07
2022-11-14T06:18:46.449Z,13.95
2022-11-14T06:21:19.033Z,13.85
2022-11-14T06:23:46.528Z,13.98
2022-11-14T06:26:21.350Z,14.15
2022-11-14T06:28:49.336Z,17.40
2022-11-14T06:31:16.400Z,14.15
2022-11-14T06:33:43.236Z,15.55
2022-11-14T06:36:12.927Z,15.05
2022-11-14T06:38:41.263Z,14.93
2022-11-14T06:41:17.180Z,14.25
2022-11-14T06:43:46.624Z,14.60
2022-11-14T06:46:16.526Z,15.25
2022-11-14T06:48:44.237Z,12.80
2022-11-14T06:51:12.432Z,13.48
2022-11-14T06:53:40.194Z,11.07
2022-11-14T06:56:11.008Z,12.75
2022-11-14T06:58:47.000Z,13.65
2022-11-14T07:01:22.495Z,13.70
2022-11-14T07:03:50.068Z,14.32
2022-11-14T07:06:19.248Z,14.75
2022-11-14T07:08:46.049Z,14.83
2022-11-14T07:11:23.937Z,12.30
2022-11-14T07:13:54.317Z,13.38
2022-11-14T07:16:23.663Z,14.02
2022-11-14T07:18:50.410Z,14.45
2022-11-14T07:21:19.357Z,13.50
2022-11-14T07:23:46.007Z,17.98
2022-11-14T07:26:14.986Z,13.77
2022-11-14T07:28:42.987Z,16.13
2022-11-14T07:31:13.683Z,13.68
2022-11-14T07:33:47.188Z,13.48
2022-11-14T07:36:17.607Z,15.23
2022-11-14T07:38:44.394Z,16.23
2022-11-14T07:41:15.638Z,16.38
2022-11-14T07:43:43.101Z,15.73
2022-11-14T07:46:17.534Z,18.88
2022-11-14T07:48:44.880Z,18.17
2022-11-14T07:51:16.755Z,17.50
2022-11-14T07:53:43.742Z,17.52
2022-11-14T07:56:10.845Z,17.95
2022-11-14T07:58:38.994Z,19.33
2022-11-14T08:01:11.328Z,20.67
2022-11-14T08:03:43.998Z,19.65
2022-11-14T08:06:17.283Z,22.00
2022-11-14T08:08:46.425Z,23.48
2022-11-14T08:11:31.744Z,20.10
2022-11-14T08:14:01.814Z,19.17
2022-11-14T08:16:28.510Z,17.70
2022-11-14T08:18:57.290Z,20.20
2022-11-14T08:21:23.966Z,17.42
2022-11-14T08:23:51.727Z,19.98
2022-11-14T08:26:18.402Z,19.98
2022-11-14T08:28:45.152Z,18.58
2022-11-14T08:31:13.573Z,18.48
2022-11-14T08:33:40.231Z,18.27
2022-11-14T08:36:10.919Z,17.60
2022-11-14T08:38:37.772Z,17.45
2022-11-14T08:41:04.726Z,17.55
2022-11-14T08:43:32.266Z,21.70
2022-11-14T08:46:02.586Z,17.50
2022-11-14T08:48:33.416Z,17.67
2022-11-14T08:51:06.969Z,17.90
2022-11-14T08:53:34.677Z,15.80
2022-11-14T08:56:03.929Z,16.23
2022-11-14T08:58:32.121Z,18.17
2022-11-14T09:01:03.377Z,21.73
2022-11-14T09:03:30.327Z,18.50
2022-11-14T09:05:57.356Z,16.52
2022-11-14T09:08:24.588Z,19.42
2022-11-14T09:10:53.421Z,19.52
2022-11-14T09:13:20.348Z,17.30
2022-11-14T09:15:49.506Z,17.02
2022-11-14T09:18:18.397Z,18.33
2022-11-14T09:20:45.160Z,18.52
2022-11-14T09:23:14.335Z,17.55
2022-11-14T09:25:41.000Z,15.87
2022-11-14T09:28:08.972Z,17.38
2022-11-14T09:30:36.876Z,18.17
2022-11-14T09:33:11.172Z,23.63
2022-11-14T09:35:38.553Z,22.38
2022-11-14T09:38:11.715Z,18.95
2022-11-14T09:40:55.837Z,18.67
2022-11-14T09:43:28.946Z,16.48
2022-11-14T09:45:58.673Z,21.35
2022-11-14T09:48:30.018Z,18.48
2022-11-14T09:51:11.420Z,15.43
2022-11-14T09:53:47.794Z,16.55
2022-11-14T09:56:24.657Z,16.70
2022-11-14T09:58:52.090Z,17.67
2022-11-14T10:01:41.626Z,16.55
2022-11-14T10:04:22.491Z,17.17
2022-11-14T10:07:09.285Z,16.00
2022-11-14T10:09:54.612Z,18.67
2022-11-14T10:12:40.566Z,18.20
2022-11-14T10:15:07.255Z,19.02
2022-11-14T10:17:44.268Z,16.85
2022-11-14T10:20:31.935Z,17.17
2022-11-14T10:23:07.557Z,17.80
2022-11-14T10:25:44.385Z,19.25
2022-11-14T10:28:29.668Z,21.20
2022-11-14T10:30:56.467Z,18.83
2022-11-14T10:33:44.663Z,16.67
2022-11-14T10:36:23.497Z,19.75
2022-11-14T10:39:31.405Z,18.42
2022-11-14T10:42:09.970Z,17.40
2022-11-14T10:44:43.295Z,19.65
2022-11-14T10:47:16.858Z,19.90
2022-11-14T10:49:46.553Z,19.88
2022-11-14T10:52:18.210Z,14.90
2022-11-14T10:54:53.528Z,18.70
2022-11-14T10:57:22.245Z,17.40
2022-11-14T10:59:49.320Z,19.10
2022-11-14T11:02:16.381Z,19.83
2022-11-14T11:04:44.658Z,20.23
2022-11-14T11:07:31.378Z,20.60
2022-11-14T11:10:29.641Z,21.20
2022-11-14T11:12:58.869Z,18.25
2022-11-14T11:15:41.397Z,20.65
2022-11-14T11:18:29.033Z,20.95
2022-11-14T11:21:06.460Z,19.45
2022-11-14T11:23:34.069Z,20.85
2022-11-14T11:26:07.657Z,28.73
2022-11-14T11:28:38.284Z,23.02
2022-11-14T11:31:13.831Z,21.73
2022-11-14T11:33:42.923Z,24.52
2022-11-14T11:36:22.376Z,23.17
2022-11-14T11:38:50.011Z,23.80
2022-11-14T11:42:08.682Z,23.27
2022-11-14T11:44:38.062Z,27.20
2022-11-14T11:47:13.467Z,22.92
2022-11-14T11:49:53.051Z,19.75
2022-11-14T11:52:28.673Z,19.83
2022-11-14T11:55:16.276Z,26.65
2022-11-14T11:57:51.469Z,20.90
2022-11-14T12:00:20.648Z,20.77
2022-11-14T12:02:53.055Z,21.53
2022-11-14T12:05:31.142Z,18.75
2022-11-14T12:08:07.521Z,19.25
2022-11-14T12:10:38.032Z,23.85
2022-11-14T12:14:01.454Z,20.08
2022-11-14T12:17:21.738Z,22.67
2022-11-14T12:20:03.458Z,18.92
2022-11-14T12:22:54.713Z,20.45
2022-11-14T12:25:39.690Z,19.85
2022-11-14T12:28:12.085Z,19.65
2022-11-14T12:30:40.677Z,18.00
2022-11-14T12:33:26.836Z,19.90
2022-11-14T12:35:59.790Z,16.08
2022-11-14T12:38:34.102Z,17.63
2022-11-14T12:41:01.910Z,16.02
2022-11-14T12:43:36.837Z,16.08
2022-11-14T12:46:08.026Z,18.05
2022-11-14T12:48:36.754Z,16.63
2022-11-14T12:51:08.612Z,18.52
2022-11-14T12:53:38.059Z,20.77
2022-11-14T12:56:13.690Z,18.77
2022-11-14T12:59:04.708Z,18.48
2022-11-14T13:01:40.486Z,17.08
2022-11-14T13:04:15.893Z,19.08
2022-11-14T13:07:03.755Z,16.30
2022-11-14T13:09:36.181Z,17.77
2022-11-14T13:12:38.711Z,16.95
2022-11-14T13:15:53.054Z,18.88
2022-11-14T13:18:44.688Z,16.38
2022-11-14T13:21:48.023Z,17.02
2022-11-14T13:24:17.186Z,20.23
2022-11-14T13:26:51.903Z,19.73
2022-11-14T13:29:39.356Z,16.10
2022-11-14T13:32:15.166Z,16.60
2022-11-14T13:35:06.429Z,18.88
2022-11-14T13:37:55.444Z,18.33
2022-11-14T13:40:46.695Z,15.90
2022-11-14T13:43:29.719Z,17.15
2022-11-14T13:46:14.564Z,19.92
2022-11-14T13:49:21.923Z,18.35
2022-11-14T13:51:53.500Z,18.27
2022-11-14T13:54:20.837Z,16.98
2022-11-14T13:57:05.627Z,17.30
2022-11-14T14:00:22.997Z,15.70
2022-11-14T14:02:55.303Z,14.63
2022-11-14T14:05:43.239Z,17.58
2022-11-14T14:08:19.549Z,15.52
2022-11-14T14:10:49.312Z,14.48
2022-11-14T14:13:27.847Z,15.63
2022-11-14T14:16:23.326Z,15.93
2022-11-14T14:19:04.959Z,14.15
2022-11-14T14:21:57.052Z,14.63
2022-11-14T14:24:53.716Z,14.18
2022-11-14T14:27:26.298Z,15.30
2022-11-14T14:30:06.275Z,16.55
2022-11-14T14:35:00.697Z,16.50
2022-11-14T14:37:29.252Z,13.88
2022-11-14T14:39:58.183Z,15.40
2022-11-14T14:42:34.698Z,12.68
2022-11-14T14:45:03.898Z,15.95
2022-11-14T14:47:40.025Z,12.32
2022-11-14T14:50:29.898Z,14.27
2022-11-14T14:52:59.493Z,11.55
2022-11-14T14:55:34.204Z,11.07
2022-11-14T14:58:23.810Z,12.48
2022-11-14T15:01:13.256Z,12.75
2022-11-14T15:03:48.202Z,13.23
2022-11-14T15:06:30.552Z,11.65
2022-11-14T15:09:02.065Z,11.70
2022-11-14T15:11:32.542Z,12.00
2022-11-14T15:14:03.540Z,11.45
2022-11-14T15:16:31.147Z,11.02
2022-11-14T15:19:00.807Z,10.60
2022-11-14T15:21:29.195Z,14.60
2022-11-14T15:24:24.885Z,13.40
2022-11-14T15:26:54.462Z,12.23
2022-11-14T15:29:27.841Z,14.07
2022-11-14T15:31:57.781Z,12.45
2022-11-14T15:37:19.117Z,14.60
2022-11-14T15:39:47.370Z,13.07
2022-11-14T15:42:28.315Z,10.85
2022-11-14T15:44:55.840Z,11.60
2022-11-14T15:47:22.592Z,11.90
2022-11-14T15:50:00.943Z,9.80
2022-11-14T15:52:30.883Z,11.85
2022-11-14T15:57:26.406Z,15.27
2022-11-14T15:59:53.080Z,13.30
2022-11-14T16:02:24.384Z,10.52
2022-11-14T16:04:54.476Z,12.27
2022-11-14T16:07:22.354Z,14.32
2022-11-14T16:09:49.279Z,11.85
2022-11-14T16:12:16.331Z,11.35
2022-11-14T16:14:43.372Z,14.32
2022-11-14T16:17:14.882Z,11.70
2022-11-14T16:19:42.270Z,12.50
2022-11-14T16:22:12.602Z,14.68
2022-11-14T16:24:42.172Z,12.60
2022-11-14T16:27:11.581Z,13.38
2022-11-14T16:29:38.307Z,12.73
2022-11-14T16:32:05.144Z,13.93
2022-11-14T16:34:36.529Z,11.80
2022-11-14T16:37:03.344Z,13.60
2022-11-14T16:39:30.380Z,12.20
2022-11-14T16:42:04.140Z,13.02
2022-11-14T16:44:34.500Z,13.10
2022-11-14T16:47:05.579Z,12.77
2022-11-14T16:49:32.298Z,11.13
2022-11-14T16:52:06.946Z,16.70
2022-11-14T16:54:33.831Z,11.88
2022-11-14T16:57:00.607Z,12.60
2022-11-14T16:59:27.348Z,13.18
2022-11-14T17:01:54.107Z,12.05
2022-11-14T17:04:20.888Z,10.95
2022-11-14T17:06:47.709Z,13.40
2022-11-14T17:09:14.776Z,10.82
2022-11-14T17:11:44.587Z,11.55
2022-11-14T17:14:16.064Z,11.15
2022-11-14T17:16:42.748Z,12.80
2022-11-14T17:19:09.456Z,11.48
2022-11-14T17:21:36.201Z,11.77
2022-11-14T17:24:03.078Z,10.20
2022-11-14T17:26:31.976Z,10.68
2022-11-14T17:29:02.300Z,10.85
2022-11-14T17:31:33.733Z,12.60
2022-11-14T17:34:03.292Z,10.05
2022-11-14T17:36:33.748Z,11.43
2022-11-14T17:39:00.587Z,14.65
2022-11-14T17:41:27.367Z,11.43
2022-11-14T17:43:56.698Z,10.15
2022-11-14T17:46:23.576Z,12.32
2022-11-14T17:48:50.492Z,13.23
2022-11-14T17:51:17.289Z,12.57
2022-11-14T17:53:44.138Z,14.23
2022-11-14T17:56:15.302Z,11.93
2022-11-14T17:58:42.777Z,10.20
2022-11-14T18:01:17.360Z,10.85
2022-11-14T18:03:46.533Z,11.65
2022-11-14T18:06:21.899Z,9.82
2022-11-14T18:08:48.988Z,11.23
2022-11-14T18:11:17.156Z,11.48
2022-11-14T18:13:44.167Z,10.32
2022-11-14T18:16:15.885Z,8.52
2022-11-14T18:18:42.898Z,8.75
2022-11-14T18:21:12.523Z,10.05
2022-11-14T18:23:39.251Z,11.55
2022-11-14T18:26:15.650Z,10.73
2022-11-14T18:28:43.244Z,10.85
2022-11-14T18:31:11.258Z,9.55
2022-11-14T18:33:41.647Z,12.25
2022-11-14T18:36:11.700Z,11.05
2022-11-14T18:38:38.764Z,12.80
2022-11-14T18:41:09.276Z,10.05
2022-11-14T18:43:38.454Z,9.25
2022-11-14T18:46:07.646Z,8.48
2022-11-14T18:48:35.614Z,10.77
2022-11-14T18:51:08.281Z,8.02
2022-11-14T18:53:36.305Z,11.20
2022-11-14T18:56:08.133Z,12.00
2022-11-14T18:58:36.022Z,10.57
2022-11-14T19:01:12.844Z,11.77
2022-11-14T19:03:39.853Z,8.48
2022-11-14T19:06:08.481Z,10.15
2022-11-14T19:08:35.369Z,8.70
2022-11-14T19:11:06.380Z,9.50
2022-11-14T19:13:33.711Z,10.65
2022-11-14T19:16:02.434Z,8.75
2022-11-14T19:18:32.398Z,9.30
2022-11-14T19:23:26.987Z,7.85
2022-11-14T19:25:59.664Z,8.27
2022-11-14T19:28:27.753Z,8.75
2022-11-14T19:31:01.262Z,9.13
2022-11-14T19:33:30.796Z,9.57
2022-11-14T19:36:06.318Z,7.63
2022-11-14T19:38:33.487Z,7.72
2022-11-14T19:41:06.989Z,7.65
2022-11-14T19:43:33.935Z,8.88
2022-11-14T19:46:02.628Z,7.63
2022-11-14T19:48:30.085Z,9.13
2022-11-14T19:51:11.213Z,7.57
2022-11-14T19:53:39.717Z,7.40
2022-11-14T19:56:11.948Z,8.30
2022-11-14T19:58:39.922Z,7.93
2022-11-14T20:01:23.202Z,7.30
2022-11-14T20:03:58.584Z,7.75
2022-11-14T20:06:36.364Z,6.43
2022-11-14T20:09:07.294Z,7.28
2022-11-14T20:11:37.423Z,6.50
2022-11-14T20:14:05.544Z,10.57
2022-11-14T20:16:35.530Z,6.97
2022-11-14T20:21:31.463Z,8.38
2022-11-14T20:23:58.840Z,7.63
2022-11-14T20:26:25.976Z,8.57
2022-11-14T20:28:53.978Z,8.23
2022-11-14T20:31:23.455Z,7.50
2022-11-14T20:33:54.008Z,6.13
2022-11-14T20:36:32.030Z,7.13
2022-11-14T20:39:06.467Z,7.22
2022-11-14T20:41:33.914Z,7.53
2022-11-14T20:44:02.208Z,8.20
2022-11-14T20:46:29.189Z,6.95
2022-11-14T20:49:00.702Z,7.95
2022-11-14T20:51:28.245Z,8.55
2022-11-14T20:53:55.953Z,9.02
2022-11-14T20:56:25.494Z,12.02
2022-11-14T20:58:54.659Z,16.20
2022-11-14T21:01:21.895Z,13.93
2022-11-14T21:03:52.057Z,13.85
2022-11-14T21:06:18.793Z,12.98
2022-11-14T21:08:48.048Z,10.38
2022-11-14T21:11:18.055Z,9.35
2022-11-14T21:13:57.288Z,7.93
2022-11-14T21:16:33.497Z,6.95
2022-11-14T21:19:01.118Z,6.90
2022-11-14T21:21:29.115Z,8.13
2022-11-14T21:23:56.949Z,8.70
2022-11-14T21:26:24.918Z,6.15
2022-11-14T21:28:56.323Z,6.75
2022-11-14T21:31:27.511Z,8.45
2022-11-14T21:34:01.409Z,6.53
2022-11-14T21:36:50.184Z,6.43
2022-11-14T21:39:17.549Z,8.25
2022-11-14T21:42:00.395Z,7.07
2022-11-14T21:44:27.575Z,6.68
2022-11-14T21:46:56.956Z,8.40
2022-11-14T21:49:23.715Z,6.55
2022-11-14T21:51:50.726Z,6.13
2022-11-14T21:54:17.582Z,8.13
2022-11-14T21:56:53.416Z,7.63
2022-11-14T21:59:25.586Z,7.22
2022-11-14T22:02:10.924Z,7.97
2022-11-14T22:04:37.956Z,6.97
2022-11-14T22:07:06.605Z,7.38
2022-11-14T22:09:33.898Z,6.55
2022-11-14T22:12:01.592Z,7.95
2022-11-14T22:14:29.382Z,7.20
2022-11-14T22:16:56.570Z,6.90
2022-11-14T22:19:27.931Z,7.93
2022-11-14T22:21:54.688Z,5.80
2022-11-14T22:24:21.521Z,7.25
2022-11-14T22:26:48.268Z,7.03
2022-11-14T22:29:14.983Z,9.52
2022-11-14T22:31:43.877Z,8.70
2022-11-14T22:34:11.842Z,8.68
2022-11-14T22:36:40.803Z,7.03
2022-11-14T22:39:07.466Z,5.68
2022-11-14T22:41:34.202Z,5.68
2022-11-14T22:44:03.839Z,6.85
2022-11-14T22:46:32.720Z,7.55
2022-11-14T22:48:59.487Z,7.70
2022-11-14T22:51:29.806Z,7.47
2022-11-14T22:53:59.835Z,6.60
2022-11-14T22:56:28.627Z,6.20
2022-11-14T22:58:56.283Z,6.05
2022-11-14T23:01:26.163Z,8.90
2022-11-14T23:06:25.974Z,7.55
2022-11-14T23:08:53.245Z,6.30
2022-11-14T23:11:25.130Z,9.65
2022-11-14T23:13:53.779Z,7.85
2022-11-14T23:16:25.857Z,5.68
2022-11-14T23:18:58.662Z,7.15
2022-11-14T23:21:31.614Z,4.97
2022-11-14T23:24:00.656Z,7.03
2022-11-14T23:26:28.840Z,5.60
2022-11-14T23:28:56.033Z,6.22
2022-11-14T23:31:23.763Z,8.45
2022-11-14T23:33:58.077Z,8.77
2022-11-14T23:36:25.257Z,6.97
2022-11-14T23:38:54.837Z,7.53
2022-11-14T23:41:26.236Z,9.90
2022-11-14T23:43:53.322Z,9.10
2022-11-14T23:46:22.244Z,11.05
2022-11-14T23:48:49.117Z,6.75
2022-11-14T23:51:17.424Z,7.30
2022-11-14T23:53:44.275Z,7.57
2022-11-14T23:56:13.483Z,8.48
2022-11-14T23:58:44.972Z,7.43
